createdAt,value
2018-11-27T00:00:44.065Z,9.30
2018-11-27T00:03:13.976Z,8.80
2018-11-27T00:05:44.229Z,9.23
2018-11-27T00:08:14.424Z,8.93
2018-11-27T00:10:44.343Z,8.77
2018-11-27T00:13:14.185Z,9.10
2018-11-27T00:15:44.083Z,9.73
2018-11-27T00:18:15.215Z,9.93
2018-11-27T00:20:45.391Z,9.70
2018-11-27T00:23:15.401Z,8.93
2018-11-27T00:25:45.365Z,10.17
2018-11-27T00:28:16.655Z,9.73
2018-11-27T00:30:47.667Z,10.27
2018-11-27T00:33:17.497Z,9.50
2018-11-27T00:35:47.385Z,9.17
2018-11-27T00:38:17.209Z,9.03
2018-11-27T00:40:47.047Z,9.17
2018-11-27T00:43:16.967Z,9.33
2018-11-27T00:45:46.807Z,9.40
2018-11-27T00:48:16.602Z,9.27
2018-11-27T00:50:46.406Z,9.10
2018-11-27T00:53:16.161Z,8.53
2018-11-27T00:55:45.997Z,9.07
2018-11-27T00:58:15.779Z,9.77
2018-11-27T01:00:45.603Z,8.97
2018-11-27T01:03:15.481Z,9.20
2018-11-27T01:05:45.281Z,9.00
2018-11-27T01:08:15.193Z,7.90
2018-11-27T01:10:45.005Z,7.23
2018-11-27T01:13:14.815Z,7.47
2018-11-27T01:15:44.614Z,7.40
2018-11-27T01:18:14.386Z,7.70
2018-11-27T01:20:44.249Z,7.40
2018-11-27T01:23:14.059Z,8.00
2018-11-27T01:25:43.793Z,8.10
2018-11-27T01:28:13.685Z,8.33
2018-11-27T01:30:43.561Z,8.23
2018-11-27T01:33:13.363Z,7.77
2018-11-27T01:35:43.167Z,8.70
2018-11-27T01:38:12.948Z,9.13
2018-11-27T01:40:42.757Z,9.17
2018-11-27T01:43:12.559Z,9.17
2018-11-27T01:45:42.362Z,10.50
2018-11-27T01:48:12.147Z,10.83
2018-11-27T01:50:41.857Z,9.77
2018-11-27T01:53:11.661Z,10.93
2018-11-27T01:55:41.491Z,10.63
2018-11-27T01:58:11.238Z,10.53
2018-11-27T02:00:41.078Z,10.90
2018-11-27T02:03:10.900Z,10.90
2018-11-27T02:05:40.797Z,11.20
2018-11-27T02:08:10.625Z,10.43
2018-11-27T02:10:40.420Z,11.33
2018-11-27T02:13:10.210Z,10.40
2018-11-27T02:15:40.006Z,10.17
2018-11-27T02:18:11.542Z,10.57
2018-11-27T02:20:41.333Z,11.03
2018-11-27T02:23:11.186Z,11.67
2018-11-27T02:25:40.946Z,10.77
2018-11-27T02:28:10.728Z,11.43
2018-11-27T02:30:40.553Z,11.23
2018-11-27T02:33:10.688Z,10.20
2018-11-27T02:35:40.500Z,10.63
2018-11-27T02:38:10.311Z,11.47
2018-11-27T02:40:40.108Z,10.10
2018-11-27T02:43:09.852Z,10.23
2018-11-27T02:45:39.707Z,10.80
2018-11-27T02:48:09.481Z,10.37
2018-11-27T02:50:39.267Z,10.20
2018-11-27T02:53:09.076Z,8.93
2018-11-27T02:55:38.883Z,8.63
2018-11-27T02:58:08.616Z,8.57
2018-11-27T03:00:38.427Z,8.60
2018-11-27T03:03:08.413Z,9.17
2018-11-27T03:05:38.483Z,8.83
2018-11-27T03:08:08.302Z,7.97
2018-11-27T03:10:38.073Z,7.63
2018-11-27T03:13:08.547Z,7.90
2018-11-27T03:15:38.358Z,7.43
2018-11-27T03:18:08.350Z,7.17
2018-11-27T03:20:38.110Z,6.47
2018-11-27T03:23:08.584Z,5.77
2018-11-27T03:25:38.367Z,5.17
2018-11-27T03:28:08.129Z,5.17
2018-11-27T03:30:37.932Z,5.70
2018-11-27T03:33:07.738Z,5.53
2018-11-27T03:35:37.570Z,4.80
2018-11-27T03:38:07.630Z,5.13
2018-11-27T03:40:37.398Z,4.57
2018-11-27T03:43:07.177Z,4.57
2018-11-27T03:45:37.150Z,4.47
2018-11-27T03:48:07.177Z,4.57
2018-11-27T03:50:37.066Z,4.43
2018-11-27T03:53:06.949Z,4.27
2018-11-27T03:55:37.474Z,4.10
2018-11-27T03:58:07.281Z,4.10
2018-11-27T04:00:37.038Z,4.53
2018-11-27T04:03:12.524Z,4.07
2018-11-27T04:05:43.614Z,3.87
2018-11-27T04:08:13.459Z,4.00
2018-11-27T04:10:43.508Z,4.20
2018-11-27T04:13:13.318Z,3.97
2018-11-27T04:15:43.096Z,4.27
2018-11-27T04:18:12.836Z,3.70
2018-11-27T04:20:42.614Z,4.23
2018-11-27T04:23:12.503Z,4.73
2018-11-27T04:25:42.298Z,5.53
2018-11-27T04:28:12.111Z,4.67
2018-11-27T04:30:42.285Z,4.03
2018-11-27T04:33:12.399Z,4.20
2018-11-27T04:35:42.627Z,4.57
2018-11-27T04:38:12.410Z,4.50
2018-11-27T04:40:42.181Z,4.70
2018-11-27T04:43:11.942Z,4.80
2018-11-27T04:45:41.809Z,4.80
2018-11-27T04:48:11.971Z,4.47
2018-11-27T04:50:41.878Z,4.40
2018-11-27T04:53:11.700Z,4.57
2018-11-27T04:55:41.536Z,4.30
2018-11-27T04:58:11.341Z,4.60
2018-11-27T05:00:41.164Z,4.80
2018-11-27T05:03:10.939Z,4.30
2018-11-27T05:05:40.791Z,4.57
2018-11-27T05:08:11.132Z,4.80
2018-11-27T05:10:40.962Z,4.73
2018-11-27T05:13:10.684Z,4.23
2018-11-27T05:15:40.432Z,4.93
2018-11-27T05:18:10.245Z,4.27
2018-11-27T05:20:40.382Z,4.37
2018-11-27T05:23:10.170Z,4.20
2018-11-27T05:25:40.020Z,4.27
2018-11-27T05:28:09.878Z,4.23
2018-11-27T05:30:39.640Z,4.73
2018-11-27T05:33:10.098Z,4.40
2018-11-27T05:35:39.892Z,4.73
2018-11-27T05:38:09.682Z,4.73
2018-11-27T05:40:39.544Z,4.60
2018-11-27T05:43:11.115Z,4.57
2018-11-27T05:45:40.914Z,4.30
2018-11-27T05:48:10.676Z,4.20
2018-11-27T05:50:40.478Z,4.33
2018-11-27T05:53:10.384Z,3.77
2018-11-27T05:55:40.170Z,3.80
2018-11-27T05:58:09.948Z,3.83
2018-11-27T06:00:39.750Z,3.90
2018-11-27T06:03:11.062Z,4.37
2018-11-27T06:05:40.967Z,4.33
2018-11-27T06:08:11.173Z,4.20
2018-11-27T06:10:41.012Z,4.10
2018-11-27T06:13:10.816Z,4.93
2018-11-27T06:15:40.578Z,5.27
2018-11-27T06:18:10.502Z,4.30
2018-11-27T06:20:40.312Z,4.60
2018-11-27T06:23:10.107Z,4.40
2018-11-27T06:25:41.086Z,4.70
2018-11-27T06:28:10.869Z,4.70
2018-11-27T06:30:40.686Z,4.17
2018-11-27T06:33:10.478Z,4.37
2018-11-27T06:35:42.682Z,3.77
2018-11-27T06:38:13.315Z,4.07
2018-11-27T06:40:44.240Z,4.00
2018-11-27T06:43:14.468Z,4.03
2018-11-27T06:45:45.028Z,4.00
2018-11-27T06:48:14.810Z,4.20
2018-11-27T06:50:44.618Z,3.70
2018-11-27T06:53:14.454Z,4.27
2018-11-27T06:55:44.222Z,3.90
2018-11-27T06:58:14.145Z,4.10
2018-11-27T07:00:43.988Z,4.27
2018-11-27T07:03:14.844Z,3.53
2018-11-27T07:05:44.648Z,3.70
2018-11-27T07:08:14.469Z,3.60
2018-11-27T07:10:46.086Z,3.50
2018-11-27T07:13:19.292Z,3.73
2018-11-27T07:15:50.270Z,3.40
2018-11-27T07:18:20.048Z,3.60
2018-11-27T07:20:49.834Z,4.10
2018-11-27T07:23:19.774Z,3.63
2018-11-27T07:25:49.553Z,3.80
2018-11-27T07:28:19.370Z,3.90
2018-11-27T07:30:49.163Z,3.73
2018-11-27T07:33:18.950Z,4.10
2018-11-27T07:35:48.872Z,3.80
2018-11-27T07:38:18.694Z,4.00
2018-11-27T07:40:48.448Z,4.20
2018-11-27T07:43:18.196Z,4.30
2018-11-27T07:45:47.930Z,4.10
2018-11-27T07:48:17.666Z,4.27
2018-11-27T07:50:47.422Z,4.07
2018-11-27T07:53:17.219Z,4.20
2018-11-27T07:55:46.970Z,4.10
2018-11-27T07:58:16.780Z,4.30
2018-11-27T08:00:46.616Z,4.40
2018-11-27T08:03:16.431Z,4.50
2018-11-27T08:05:46.186Z,3.90
2018-11-27T08:08:18.784Z,4.20
2018-11-27T08:10:49.733Z,4.20
2018-11-27T08:13:19.484Z,3.93
2018-11-27T08:15:49.254Z,3.60
2018-11-27T08:18:18.984Z,4.07
2018-11-27T08:20:48.754Z,4.57
2018-11-27T08:23:18.552Z,3.97
2018-11-27T08:25:48.296Z,5.10
2018-11-27T08:28:18.128Z,5.03
2018-11-27T08:30:47.872Z,5.03
2018-11-27T08:33:17.693Z,5.37
2018-11-27T08:35:47.467Z,5.10
2018-11-27T08:38:17.218Z,5.40
2018-11-27T08:40:46.966Z,4.50
2018-11-27T08:43:16.773Z,4.40
2018-11-27T08:45:46.530Z,4.10
2018-11-27T08:48:16.312Z,4.40
2018-11-27T08:50:46.034Z,4.20
2018-11-27T08:53:15.822Z,4.40
2018-11-27T08:55:45.714Z,4.27
2018-11-27T08:58:18.261Z,4.70
2018-11-27T09:00:48.220Z,4.60
2018-11-27T09:03:18.000Z,4.50
2018-11-27T09:05:47.748Z,4.20
2018-11-27T09:08:17.512Z,4.43
2018-11-27T09:10:47.328Z,4.37
2018-11-27T09:13:17.457Z,4.87
2018-11-27T09:15:47.051Z,4.70
2018-11-27T09:18:26.048Z,4.60
2018-11-27T09:20:55.820Z,4.87
2018-11-27T09:23:25.587Z,4.90
2018-11-27T09:25:55.349Z,4.77
2018-11-27T09:28:25.131Z,4.73
2018-11-27T09:30:54.885Z,4.40
2018-11-27T09:33:24.645Z,4.67
2018-11-27T09:35:54.412Z,5.17
2018-11-27T09:38:24.205Z,5.33
2018-11-27T09:40:53.963Z,4.97
2018-11-27T09:43:23.701Z,5.37
2018-11-27T09:45:53.438Z,5.07
2018-11-27T09:48:23.225Z,5.60
2018-11-27T09:50:52.960Z,5.80
2018-11-27T09:53:22.748Z,5.87
2018-11-27T09:55:52.574Z,5.27
2018-11-27T09:58:22.394Z,5.10
2018-11-27T10:00:52.559Z,5.13
2018-11-27T10:03:22.334Z,5.30
2018-11-27T10:05:52.056Z,5.00
2018-11-27T10:08:21.823Z,5.00
2018-11-27T10:10:51.694Z,4.70
2018-11-27T10:13:21.438Z,5.33
2018-11-27T10:15:51.274Z,5.23
2018-11-27T10:18:21.002Z,4.97
2018-11-27T10:20:50.776Z,5.13
2018-11-27T10:23:20.653Z,5.40
2018-11-27T10:25:50.381Z,5.37
2018-11-27T10:28:20.118Z,5.53
2018-11-27T10:30:49.874Z,4.97
2018-11-27T10:33:19.692Z,4.93
2018-11-27T10:35:52.516Z,5.20
2018-11-27T10:38:22.321Z,5.03
2018-11-27T10:40:52.102Z,5.33
2018-11-27T10:43:21.878Z,5.67
2018-11-27T10:45:51.680Z,5.47
2018-11-27T10:48:21.413Z,5.57
2018-11-27T10:50:51.206Z,5.80
2018-11-27T10:53:20.951Z,5.50
2018-11-27T10:55:50.881Z,5.77
2018-11-27T10:58:20.591Z,6.13
2018-11-27T11:00:55.475Z,5.77
2018-11-27T11:03:30.130Z,5.20
2018-11-27T11:05:59.964Z,5.23
2018-11-27T11:08:29.735Z,6.43
2018-11-27T11:10:59.514Z,5.30
2018-11-27T11:13:29.261Z,5.50
2018-11-27T11:15:59.037Z,5.70
2018-11-27T11:18:28.794Z,6.03
2018-11-27T11:20:58.587Z,5.53
2018-11-27T11:23:28.356Z,6.20
2018-11-27T11:25:58.406Z,6.07
2018-11-27T11:28:31.556Z,5.93
2018-11-27T11:31:01.719Z,5.97
2018-11-27T11:33:31.529Z,5.03
2018-11-27T11:36:01.289Z,6.10
2018-11-27T11:38:31.046Z,6.40
2018-11-27T11:41:00.931Z,6.33
2018-11-27T11:43:30.688Z,5.97
2018-11-27T11:46:00.474Z,6.43
2018-11-27T11:48:30.246Z,6.20
2018-11-27T11:51:00.038Z,6.10
2018-11-27T11:53:29.815Z,5.80
2018-11-27T11:55:59.603Z,6.30
2018-11-27T11:58:29.385Z,6.20
2018-11-27T12:02:28.191Z,5.83
2018-11-27T12:04:58.025Z,5.73
2018-11-27T12:07:27.835Z,6.37
2018-11-27T12:09:57.615Z,6.30
2018-11-27T12:12:27.375Z,6.30
2018-11-27T12:14:57.131Z,6.77
2018-11-27T12:17:26.891Z,6.33
2018-11-27T12:19:56.686Z,6.50
2018-11-27T12:22:26.453Z,6.27
2018-11-27T12:24:56.197Z,6.60
2018-11-27T12:27:25.938Z,6.67
2018-11-27T12:29:55.721Z,6.00
2018-11-27T12:32:25.499Z,7.33
2018-11-27T12:34:55.285Z,7.27
2018-11-27T12:37:25.084Z,6.40
2018-11-27T12:39:54.845Z,6.70
2018-11-27T12:43:53.999Z,7.10
2018-11-27T12:46:23.745Z,7.67
2018-11-27T12:48:53.647Z,7.73
2018-11-27T12:51:23.483Z,7.23
2018-11-27T12:53:53.243Z,7.70
2018-11-27T12:56:23.013Z,7.77
2018-11-27T12:58:52.751Z,7.10
2018-11-27T13:01:22.518Z,7.43
2018-11-27T13:03:52.262Z,7.33
2018-11-27T13:06:22.095Z,6.50
2018-11-27T13:08:51.871Z,6.37
2018-11-27T13:11:21.620Z,6.63
2018-11-27T13:13:51.368Z,6.63
2018-11-27T13:16:21.128Z,6.23
2018-11-27T13:18:51.553Z,6.70
2018-11-27T13:21:21.291Z,6.83
2018-11-27T13:23:51.222Z,7.13
2018-11-27T13:26:21.132Z,7.30
2018-11-27T13:28:50.902Z,6.50
2018-11-27T13:31:24.848Z,6.40
2018-11-27T13:34:00.233Z,5.83
2018-11-27T13:36:29.981Z,5.90
2018-11-27T13:42:58.923Z,6.50
2018-11-27T13:45:28.707Z,6.13
2018-11-27T13:47:58.475Z,6.97
2018-11-27T13:50:28.292Z,6.47
2018-11-27T13:52:58.205Z,6.27
2018-11-27T13:55:27.997Z,10.23
2018-11-27T13:57:57.746Z,7.03
2018-11-27T14:00:27.885Z,6.90
2018-11-27T14:02:57.824Z,6.60
2018-11-27T14:05:28.005Z,7.60
2018-11-27T14:07:58.217Z,7.10
2018-11-27T14:10:28.192Z,7.47
2018-11-27T14:12:57.956Z,7.17
2018-11-27T14:15:27.794Z,6.97
2018-11-27T14:17:57.890Z,7.37
2018-11-27T14:20:27.709Z,7.17
2018-11-27T14:22:57.493Z,7.27
2018-11-27T14:25:27.588Z,7.07
2018-11-27T14:27:57.356Z,7.63
2018-11-27T14:30:27.156Z,7.77
2018-11-27T14:32:56.941Z,7.30
2018-11-27T14:35:26.747Z,8.30
2018-11-27T14:37:57.321Z,8.67
2018-11-27T14:40:28.371Z,8.63
2018-11-27T14:42:58.147Z,9.30
2018-11-27T14:45:28.491Z,8.30
2018-11-27T14:48:00.567Z,8.10
2018-11-27T14:50:30.465Z,9.07
2018-11-27T14:53:00.240Z,8.50
2018-11-27T14:55:32.613Z,8.80
2018-11-27T14:58:02.389Z,8.00
2018-11-27T15:00:32.543Z,8.20
2018-11-27T15:03:02.325Z,8.37
2018-11-27T15:05:38.539Z,7.80
2018-11-27T15:08:10.692Z,8.50
2018-11-27T15:10:40.832Z,8.10
2018-11-27T15:13:12.322Z,8.23
2018-11-27T15:15:42.136Z,7.80
2018-11-27T15:18:12.221Z,7.97
2018-11-27T15:20:42.016Z,8.50
2018-11-27T15:23:11.795Z,8.70
2018-11-27T15:25:41.564Z,9.23
2018-11-27T15:28:11.392Z,8.90
2018-11-27T15:30:41.194Z,8.57
2018-11-27T15:33:10.962Z,9.10
2018-11-27T15:35:40.762Z,8.47
2018-11-27T15:38:10.545Z,8.83
2018-11-27T15:40:40.931Z,9.47
2018-11-27T15:43:11.148Z,9.53
2018-11-27T15:45:40.919Z,9.00
2018-11-27T15:49:39.932Z,9.50
2018-11-27T15:52:09.722Z,9.83
2018-11-27T15:54:39.488Z,10.13
2018-11-27T15:57:09.263Z,9.77
2018-11-27T15:59:39.027Z,10.60
2018-11-27T16:02:08.919Z,11.13
2018-11-27T16:04:38.727Z,10.87
2018-11-27T16:07:08.498Z,10.07
2018-11-27T16:09:38.342Z,11.10
2018-11-27T16:12:08.162Z,10.27
2018-11-27T16:14:37.944Z,11.17
2018-11-27T16:17:07.797Z,11.20
2018-11-27T16:19:37.573Z,11.80
2018-11-27T16:22:07.457Z,12.93
2018-11-27T16:24:37.659Z,13.40
2018-11-27T16:27:07.852Z,13.80
2018-11-27T16:29:37.649Z,14.47
2018-11-27T16:32:07.761Z,12.70
2018-11-27T16:34:37.578Z,11.40
2018-11-27T16:37:07.713Z,10.23
2018-11-27T16:39:37.487Z,11.00
2018-11-27T16:42:07.631Z,10.33
2018-11-27T16:44:37.427Z,9.20
2018-11-27T16:47:07.485Z,9.90
2018-11-27T16:49:37.340Z,9.40
2018-11-27T16:52:07.564Z,9.27
2018-11-27T16:54:37.361Z,11.03
2018-11-27T16:57:07.206Z,10.53
2018-11-27T16:59:36.987Z,11.20
2018-11-27T17:02:07.341Z,10.40
2018-11-27T17:04:37.089Z,11.47
2018-11-27T17:07:07.142Z,11.90
2018-11-27T17:09:36.922Z,10.93
2018-11-27T17:12:06.766Z,10.63
2018-11-27T17:14:36.541Z,10.73
2018-11-27T17:17:06.548Z,10.97
2018-11-27T17:19:36.342Z,10.80
2018-11-27T17:22:07.135Z,10.77
2018-11-27T17:24:36.509Z,10.77
2018-11-27T17:27:06.694Z,9.90
2018-11-27T17:29:36.459Z,10.00
2018-11-27T17:32:06.932Z,11.37
2018-11-27T17:34:36.702Z,9.87
2018-11-27T17:37:06.763Z,11.23
2018-11-27T17:39:36.603Z,10.87
2018-11-27T17:42:06.894Z,11.23
2018-11-27T17:44:36.678Z,10.17
2018-11-27T17:47:06.847Z,10.37
2018-11-27T17:49:36.642Z,9.57
2018-11-27T17:52:06.491Z,9.93
2018-11-27T17:54:36.264Z,10.73
2018-11-27T17:57:06.642Z,10.40
2018-11-27T17:59:36.430Z,10.60
2018-11-27T18:02:06.956Z,11.07
2018-11-27T18:04:36.760Z,10.97
2018-11-27T18:07:06.982Z,10.13
2018-11-27T18:09:36.754Z,9.87
2018-11-27T18:12:06.936Z,8.47
2018-11-27T18:14:36.698Z,10.17
2018-11-27T18:17:06.560Z,10.67
2018-11-27T18:19:36.516Z,10.90
2018-11-27T18:22:07.411Z,12.83
2018-11-27T18:24:38.487Z,11.53
2018-11-27T18:27:07.139Z,11.40
2018-11-27T18:29:36.925Z,11.27
2018-11-27T18:32:06.852Z,12.17
2018-11-27T18:34:36.614Z,10.80
2018-11-27T18:37:06.808Z,10.90
2018-11-27T18:39:36.568Z,10.20
2018-11-27T18:42:06.479Z,12.20
2018-11-27T18:44:36.224Z,12.10
2018-11-27T18:47:06.640Z,11.67
2018-11-27T18:49:36.522Z,11.93
2018-11-27T18:52:06.392Z,11.67
2018-11-27T18:54:36.204Z,10.33
2018-11-27T18:57:07.160Z,11.67
2018-11-27T18:59:36.940Z,11.50
2018-11-27T19:02:07.133Z,10.57
2018-11-27T19:04:36.956Z,10.43
2018-11-27T19:07:07.214Z,10.40
2018-11-27T19:09:37.763Z,10.03
2018-11-27T19:12:08.567Z,10.87
2018-11-27T19:14:38.473Z,10.37
2018-11-27T19:17:09.178Z,11.10
2018-11-27T19:19:38.788Z,8.90
2018-11-27T19:22:09.100Z,9.83
2018-11-27T19:24:38.921Z,9.57
2018-11-27T19:27:08.714Z,9.37
2018-11-27T19:29:38.500Z,10.37
2018-11-27T19:32:08.297Z,11.00
2018-11-27T19:34:38.132Z,11.43
2018-11-27T19:37:08.298Z,11.70
2018-11-27T19:39:38.132Z,11.33
2018-11-27T19:42:08.278Z,11.53
2018-11-27T19:44:38.546Z,11.97
2018-11-27T19:47:08.657Z,11.37
2018-11-27T19:49:38.668Z,12.87
2018-11-27T19:52:08.486Z,12.00
2018-11-27T19:54:38.252Z,12.40
2018-11-27T19:57:08.141Z,11.60
2018-11-27T19:59:37.890Z,12.37
2018-11-27T20:02:08.098Z,13.07
2018-11-27T20:04:37.916Z,12.13
2018-11-27T20:07:08.106Z,11.63
2018-11-27T20:09:37.878Z,11.83
2018-11-27T20:12:08.086Z,11.40
2018-11-27T20:14:37.890Z,12.17
2018-11-27T20:17:07.797Z,11.43
2018-11-27T20:19:37.626Z,11.07
2018-11-27T20:22:08.025Z,12.53
2018-11-27T20:24:37.864Z,11.60
2018-11-27T20:27:08.196Z,11.70
2018-11-27T20:29:38.030Z,11.07
2018-11-27T20:32:07.800Z,11.00
2018-11-27T20:34:37.605Z,9.90
2018-11-27T20:37:08.029Z,9.77
2018-11-27T20:39:37.955Z,10.73
2018-11-27T20:42:08.117Z,10.50
2018-11-27T20:44:37.921Z,10.87
2018-11-27T20:47:08.141Z,11.73
2018-11-27T20:49:38.271Z,11.27
2018-11-27T20:52:08.070Z,11.40
2018-11-27T20:54:37.895Z,10.57
2018-11-27T20:57:07.726Z,11.30
2018-11-27T20:59:37.508Z,11.30
2018-11-27T21:02:07.687Z,10.90
2018-11-27T21:04:37.528Z,10.93
2018-11-27T21:07:07.722Z,10.97
2018-11-27T21:09:37.521Z,10.57
2018-11-27T21:12:07.647Z,10.97
2018-11-27T21:14:37.485Z,11.77
2018-11-27T21:17:07.303Z,10.53
2018-11-27T21:19:37.967Z,10.77
2018-11-27T21:22:07.881Z,11.53
2018-11-27T21:24:37.718Z,11.80
2018-11-27T21:27:07.560Z,11.43
2018-11-27T21:29:37.447Z,11.30
2018-11-27T21:32:07.501Z,10.80
2018-11-27T21:34:37.271Z,10.97
2018-11-27T21:37:08.159Z,10.90
2018-11-27T21:39:37.954Z,10.90
2018-11-27T21:42:08.149Z,11.30
2018-11-27T21:44:37.942Z,11.30
2018-11-27T21:47:07.786Z,11.23
2018-11-27T21:49:37.634Z,10.97
2018-11-27T21:52:07.460Z,11.33
2018-11-27T21:54:37.258Z,11.73
2018-11-27T21:57:07.388Z,12.47
2018-11-27T21:59:37.868Z,12.07
2018-11-27T22:02:08.042Z,12.30
2018-11-27T22:04:37.837Z,12.47
2018-11-27T22:07:07.673Z,12.40
2018-11-27T22:09:37.488Z,12.47
2018-11-27T22:12:07.638Z,12.03
2018-11-27T22:14:37.493Z,12.30
2018-11-27T22:17:07.999Z,12.30
2018-11-27T22:19:37.739Z,11.63
2018-11-27T22:22:07.926Z,11.13
2018-11-27T22:24:37.798Z,11.37
2018-11-27T22:27:07.668Z,11.30
2018-11-27T22:29:37.419Z,11.50
2018-11-27T22:32:08.138Z,11.60
2018-11-27T22:34:37.922Z,10.93
2018-11-27T22:37:07.929Z,9.90
2018-11-27T22:39:37.831Z,10.87
2018-11-27T22:42:07.850Z,10.57
2018-11-27T22:44:37.667Z,9.80
2018-11-27T22:47:07.549Z,10.87
2018-11-27T22:49:37.661Z,10.60
2018-11-27T22:52:07.466Z,10.80
2018-11-27T22:54:37.294Z,10.67
2018-11-27T22:57:07.100Z,10.30
2018-11-27T22:59:36.864Z,10.03
2018-11-27T23:02:07.068Z,11.17
2018-11-27T23:11:24.677Z,12.17
2018-11-27T23:22:07.799Z,13.33
2018-11-27T23:24:37.919Z,13.80
2018-11-27T23:27:07.766Z,14.40
2018-11-27T23:29:37.535Z,15.13
2018-11-27T23:32:07.359Z,16.40
2018-11-27T23:34:37.342Z,21.83
2018-11-27T23:37:07.237Z,45.30
2018-11-27T23:39:37.115Z,43.17
2018-11-27T23:42:07.801Z,40.57
2018-11-27T23:44:37.651Z,44.83
2018-11-27T23:47:07.655Z,46.13
2018-11-27T23:49:37.478Z,37.30
2018-11-27T23:52:07.841Z,47.50
2018-11-27T23:54:37.645Z,51.00
2018-11-27T23:57:07.813Z,40.40
2018-11-27T23:59:37.743Z,41.40
